Time;durP1;ratioP1;P1;durP2;ratioP2;P2;SDS_P1;SDS_P2;PMS_P1;PMS_P2;Temp;Humidity;BMP_temperature;BMP_pressure;BME280_temperature;BME280_humidity;BME280_pressure;Samples;Min_cycle;Max_cycle;Signal;HPM_P1;HPM_P2
2023/12/18 00:01:15;;;;;;;63.05;52.90;;;18.70;85.60;;;;;;5076769;28;20056;-69
2023/12/18 00:03:41;;;;;;;66.85;49.67;;;18.60;85.70;;;;;;5076579;28;20040;-68
2023/12/18 00:06:07;;;;;;;55.97;45.65;;;18.40;85.60;;;;;;5079990;28;20048;-66
2023/12/18 00:08:33;;;;;;;59.08;45.70;;;18.50;82.50;;;;;;5104528;28;20490;-65
2023/12/18 00:10:59;;;;;;;52.35;40.67;;;18.40;85.70;;;;;;5076563;28;20173;-67
2023/12/18 00:13:24;;;;;;;50.80;39.45;;;18.30;85.80;;;;;;5076814;28;20062;-69
2023/12/18 00:15:50;;;;;;;43.53;36.30;;;18.40;85.90;;;;;;5046223;28;20493;-66
2023/12/18 00:18:16;;;;;;;43.15;33.42;;;18.40;85.90;;;;;;5109529;28;20119;-65
2023/12/18 00:20:42;;;;;;;40.80;32.13;;;18.40;85.90;;;;;;5094944;28;20039;-67
2023/12/18 00:23:07;;;;;;;39.13;31.35;;;18.70;86.10;;;;;;5110363;28;20810;-68
2023/12/18 00:25:34;;;;;;;35.00;28.17;;;;;;;;;;5093826;28;20036;-65
2023/12/18 00:27:59;;;;;;;37.28;27.08;;;18.40;85.80;;;;;;5094747;28;20040;-70
2023/12/18 00:30:25;;;;;;;31.33;24.35;;;;;;;;;;5074036;28;20392;-66
2023/12/18 00:32:51;;;;;;;35.60;25.50;;;18.50;85.80;;;;;;5104866;28;20107;-66
2023/12/18 00:35:17;;;;;;;29.88;22.98;;;18.40;85.70;;;;;;5094571;28;20105;-68
2023/12/18 00:37:43;;;;;;;28.52;21.08;;;18.50;85.80;;;;;;5110343;28;20077;-69
2023/12/18 00:40:10;;;;;;;29.52;20.67;;;;;;;;;;5109627;28;20393;-68
2023/12/18 00:42:36;;;;;;;28.20;19.63;;;18.40;85.70;;;;;;5106231;28;20219;-66
2023/12/18 00:45:01;;;;;;;25.95;18.95;;;18.50;85.90;;;;;;5096459;28;20123;-69
2023/12/18 00:47:27;;;;;;;23.33;17.65;;;18.50;85.90;;;;;;5096239;28;20485;-68
2023/12/18 00:49:53;;;;;;;23.73;16.55;;;18.40;85.90;;;;;;5096424;28;20040;-69
2023/12/18 00:52:19;;;;;;;22.98;15.90;;;;;;;;;;5098452;28;20104;-67
2023/12/18 00:54:45;;;;;;;22.50;14.70;;;18.40;85.80;;;;;;5090538;28;20046;-70
2023/12/18 00:57:11;;;;;;;19.52;14.00;;;18.40;85.70;;;;;;5106139;28;20401;-67
2023/12/18 00:59:36;;;;;;;20.58;13.70;;;18.50;85.70;;;;;;5094853;28;20032;-68
2023/12/18 01:02:02;;;;;;;19.67;13.90;;;18.60;85.60;;;;;;5086146;28;20052;-68
2023/12/18 01:04:28;;;;;;;18.50;12.30;;;18.60;85.50;;;;;;5099285;28;20401;-67
2023/12/18 01:06:54;;;;;;;17.23;11.50;;;18.50;85.50;;;;;;5087761;28;20051;-68
2023/12/18 01:09:20;;;;;;;17.70;11.18;;;;;;;;;;5093642;28;20113;-67
2023/12/18 01:11:46;;;;;;;17.23;11.02;;;18.60;85.50;;;;;;5094691;28;20123;-69
2023/12/18 01:14:12;;;;;;;16.80;10.85;;;18.50;85.40;;;;;;5090198;28;20059;-68
2023/12/18 01:16:38;;;;;;;16.48;10.68;;;18.60;85.60;;;;;;5093600;28;20121;-69
2023/12/18 01:19:04;;;;;;;14.80;10.02;;;18.40;85.50;;;;;;5058656;28;20056;-67
2023/12/18 01:21:30;;;;;;;14.90;9.50;;;;;;;;;;5058704;28;20048;-67
2023/12/18 01:23:56;;;;;;;15.55;9.73;;;;;;;;;;5112768;28;20164;-69
2023/12/18 01:26:22;;;;;;;14.98;8.95;;;18.50;85.50;;;;;;5113090;28;20534;-69
2023/12/18 01:28:47;;;;;;;15.15;9.07;;;18.50;83.60;;;;;;5078824;28;20040;-70
2023/12/18 01:31:23;;;;;;;12.68;8.75;;;18.60;85.50;;;;;;5108108;28;20442;-69
2023/12/18 01:33:49;;;;;;;15.80;8.68;;;;;;;;;;5093133;28;20062;-68
2023/12/18 01:36:15;;;;;;;13.50;7.95;;;18.60;85.30;;;;;;5094445;28;20082;-69
2023/12/18 01:38:41;;;;;;;14.63;8.52;;;18.60;85.40;;;;;;5081707;28;20799;-71
2023/12/18 01:41:07;;;;;;;12.63;7.57;;;;;;;;;;5075362;28;20105;-69
2023/12/18 01:43:32;;;;;;;12.45;7.35;;;18.60;85.40;;;;;;5074758;28;20477;-69
2023/12/18 01:45:59;;;;;;;12.38;6.45;;;18.60;85.40;;;;;;5093002;28;20093;-69
2023/12/18 01:48:25;;;;;;;13.27;6.93;;;18.60;85.50;;;;;;5083841;28;20401;-69
2023/12/18 01:50:55;;;;;;;12.93;7.30;;;18.40;85.40;;;;;;5093081;28;20413;-67
2023/12/18 01:53:29;;;;;;;14.05;6.55;;;18.40;83.60;;;;;;5095099;28;20434;-69
2023/12/18 01:55:56;;;;;;;14.82;6.93;;;18.50;85.30;;;;;;5113019;28;20046;-68
2023/12/18 01:58:22;;;;;;;12.30;6.13;;;18.50;85.60;;;;;;5095448;28;20044;-64
2023/12/18 02:00:47;;;;;;;12.93;6.55;;;18.30;82.90;;;;;;5094918;28;20088;-65
2023/12/18 02:03:15;;;;;;;13.75;6.13;;;;;;;;;;5095355;28;20040;-68
2023/12/18 02:05:41;;;;;;;13.02;6.20;;;18.40;85.70;;;;;;5064439;28;20048;-66
2023/12/18 02:08:07;;;;;;;9.55;5.68;;;;;;;;;;5074751;28;20055;-65
2023/12/18 02:10:34;;;;;;;12.63;5.88;;;18.20;85.70;;;;;;5089728;28;20048;-65
2023/12/18 02:13:00;;;;;;;10.20;5.88;;;18.30;85.80;;;;;;5110847;28;20486;-67
2023/12/18 02:15:26;;;;;;;12.95;6.05;;;;;;;;;;5093748;28;20101;-69
2023/12/18 02:17:52;;;;;;;9.25;5.10;;;18.40;83.30;;;;;;5057421;28;20052;-70
2023/12/18 02:20:18;;;;;;;12.80;6.10;;;;;;;;;;5074323;28;20567;-65
2023/12/18 02:22:47;;;;;;;12.15;5.70;;;18.20;86.00;;;;;;5098216;28;20040;-68
2023/12/18 02:25:15;;;;;;;12.30;5.40;;;18.00;86.00;;;;;;5074537;28;20044;-65
2023/12/18 02:27:40;;;;;;;9.48;5.40;;;18.20;86.10;;;;;;5092544;28;20119;-66
2023/12/18 02:30:07;;;;;;;14.15;5.45;;;18.00;86.10;;;;;;5077147;28;20115;-66
2023/12/18 02:32:33;;;;;;;10.52;5.18;;;;;;;;;;5067050;28;20051;-66
2023/12/18 02:34:59;;;;;;;11.32;5.43;;;;;;;;;;5077670;28;20431;-65
2023/12/18 02:37:27;;;;;;;13.80;5.32;;;18.10;86.10;;;;;;5056127;28;20048;-66
2023/12/18 02:39:54;;;;;;;10.55;4.65;;;18.20;86.20;;;;;;5028877;28;20130;-67
2023/12/18 02:42:20;;;;;;;12.07;5.38;;;18.10;86.10;;;;;;5096355;28;20048;-65
2023/12/18 02:44:46;;;;;;;9.25;5.03;;;;;;;;;;5078184;28;20043;-67
2023/12/18 02:47:12;;;;;;;10.32;5.22;;;;;;;;;;5078491;28;20048;-69
2023/12/18 02:49:38;;;;;;;10.32;5.05;;;18.30;86.20;;;;;;5099693;28;20091;-69
2023/12/18 02:52:04;;;;;;;11.68;5.20;;;18.10;86.10;;;;;;5097196;28;20043;-70
2023/12/18 02:54:29;;;;;;;9.25;4.57;;;18.30;83.50;;;;;;5093016;28;20052;-70
2023/12/18 02:56:55;;;;;;;9.77;5.05;;;18.30;86.20;;;;;;5047480;28;20048;-70
2023/12/18 02:59:21;;;;;;;10.55;4.72;;;18.20;86.20;;;;;;5113354;28;20035;-69
2023/12/18 03:01:47;;;;;;;11.43;5.13;;;18.10;86.10;;;;;;5081888;28;20049;-66
2023/12/18 03:04:13;;;;;;;9.63;4.30;;;18.30;86.20;;;;;;5096454;28;20474;-64
2023/12/18 03:06:38;;;;;;;10.57;5.15;;;18.00;86.10;;;;;;5099764;28;20044;-65
2023/12/18 03:09:04;;;;;;;10.65;4.47;;;18.10;86.20;;;;;;5095898;28;20044;-66
2023/12/18 03:11:30;;;;;;;11.65;5.10;;;;;;;;;;5113845;28;20039;-65
2023/12/18 03:13:56;;;;;;;10.55;4.70;;;18.00;86.20;;;;;;5099780;28;20044;-65
2023/12/18 03:16:22;;;;;;;9.50;4.68;;;18.10;86.40;;;;;;5115469;28;20078;-67
2023/12/18 03:18:48;;;;;;;11.63;4.82;;;17.90;86.30;;;;;;5096526;28;20075;-67
2023/12/18 03:21:13;;;;;;;9.65;4.68;;;18.00;86.50;;;;;;5116272;28;20057;-69
2023/12/18 03:23:39;;;;;;;8.73;4.32;;;17.90;86.50;;;;;;5096616;28;20122;-69
2023/12/18 03:26:05;;;;;;;12.02;4.75;;;18.00;86.60;;;;;;5079871;28;20047;-68
2023/12/18 03:28:31;;;;;;;12.05;4.90;;;;;;;;;;5077244;28;20047;-65
2023/12/18 03:30:57;;;;;;;8.57;4.50;;;17.70;86.50;;;;;;5106849;28;20035;-68
2023/12/18 03:33:22;;;;;;;12.02;4.97;;;17.90;86.70;;;;;;5096473;28;20046;-66
2023/12/18 03:35:49;;;;;;;12.45;5.22;;;;;;;;;;5112824;28;20431;-69
2023/12/18 03:38:14;;;;;;;12.23;5.28;;;17.80;86.80;;;;;;5089002;28;20035;-65
2023/12/18 03:40:40;;;;;;;13.38;4.80;;;17.80;86.90;;;;;;5116011;28;20036;-68
2023/12/18 03:43:06;;;;;;;10.13;4.80;;;17.80;86.90;;;;;;5079416;28;20604;-66
2023/12/18 03:45:31;;;;;;;9.18;4.28;;;17.70;84.10;;;;;;5091485;28;20059;-67
2023/12/18 03:47:57;;;;;;;11.52;4.90;;;17.60;85.30;;;;;;5095774;28;20099;-69
2023/12/18 03:50:23;;;;;;;11.07;5.32;;;;;;;;;;5105698;28;20143;-67
2023/12/18 03:52:49;;;;;;;13.27;5.45;;;17.60;87.00;;;;;;5060189;28;20048;-68
2023/12/18 03:55:15;;;;;;;10.90;4.78;;;17.60;87.10;;;;;;5095135;28;20040;-68
2023/12/18 03:57:41;;;;;;;10.13;5.07;;;;;;;;;;5083232;28;20056;-66
2023/12/18 04:00:07;;;;;;;11.50;5.15;;;;;;;;;;5079615;28;20043;-67
2023/12/18 04:02:33;;;;;;;10.75;5.50;;;17.70;87.20;;;;;;5084853;28;20532;-69
2023/12/18 04:04:59;;;;;;;11.18;5.50;;;17.60;87.20;;;;;;5102981;28;20128;-68
2023/12/18 04:07:25;;;;;;;11.43;6.07;;;17.40;84.70;;;;;;5090251;28;20130;-68
2023/12/18 04:09:51;;;;;;;10.70;5.85;;;17.50;87.30;;;;;;5081513;28;20035;-68
2023/12/18 04:12:16;;;;;;;12.57;6.22;;;17.40;87.30;;;;;;5079631;28;20047;-66
2023/12/18 04:14:43;;;;;;;12.32;6.38;;;17.30;87.30;;;;;;5095013;28;20131;-66
2023/12/18 04:17:09;;;;;;;12.25;6.13;;;17.30;87.40;;;;;;5076394;28;20064;-67
2023/12/18 04:19:35;;;;;;;12.95;6.55;;;;;;;;;;5078857;28;20063;-62
2023/12/18 04:22:01;;;;;;;12.25;6.20;;;17.50;86.50;;;;;;5076436;28;20135;-66
2023/12/18 04:24:27;;;;;;;10.85;6.30;;;17.40;87.70;;;;;;5094915;28;20442;-68
2023/12/18 04:26:54;;;;;;;13.05;6.43;;;17.30;85.00;;;;;;5095318;28;20147;-66
2023/12/18 04:29:20;;;;;;;12.50;6.60;;;17.40;87.70;;;;;;5076463;28;20111;-67
2023/12/18 04:31:47;;;;;;;9.77;6.32;;;17.40;87.70;;;;;;5070818;28;20577;-66
2023/12/18 04:34:13;;;;;;;11.15;6.03;;;17.30;87.80;;;;;;5093451;28;20040;-67
2023/12/18 04:36:39;;;;;;;12.15;6.35;;;17.30;86.80;;;;;;5086458;28;20479;-64
2023/12/18 04:39:05;;;;;;;10.90;6.38;;;17.30;87.80;;;;;;5079930;28;20123;-65
2023/12/18 04:41:31;;;;;;;11.82;6.40;;;17.20;87.80;;;;;;5063267;28;20124;-67
2023/12/18 04:43:56;;;;;;;11.55;5.95;;;17.20;87.90;;;;;;5076489;28;20428;-67
2023/12/18 04:46:22;;;;;;;12.00;6.72;;;17.10;88.00;;;;;;5076250;28;20062;-67
2023/12/18 04:48:48;;;;;;;10.48;5.90;;;;;;;;;;5076480;28;20032;-67
2023/12/18 04:51:14;;;;;;;11.40;6.07;;;17.20;85.10;;;;;;5076147;28;20050;-66
2023/12/18 04:53:40;;;;;;;13.82;6.57;;;17.20;88.00;;;;;;5100725;28;20196;-67
2023/12/18 04:56:06;;;;;;;14.20;6.47;;;17.20;88.10;;;;;;5059803;28;20055;-67
2023/12/18 04:58:35;;;;;;;13.10;5.85;;;17.20;84.80;;;;;;5094195;28;20804;-68
2023/12/18 05:01:05;;;;;;;11.50;6.10;;;;;;;;;;5100870;28;20054;-65
2023/12/18 05:03:30;;;;;;;11.23;5.78;;;17.00;88.10;;;;;;5093693;28;20040;-65
2023/12/18 05:05:56;;;;;;;10.52;5.65;;;17.00;88.10;;;;;;5094943;28;20051;-67
2023/12/18 05:08:22;;;;;;;11.02;5.93;;;16.90;85.30;;;;;;5093515;28;20059;-67
2023/12/18 05:10:48;;;;;;;10.73;5.82;;;17.20;88.30;;;;;;5105502;28;20409;-65
2023/12/18 05:13:13;;;;;;;11.65;5.63;;;17.10;88.30;;;;;;5101133;28;20041;-68
2023/12/18 05:15:39;;;;;;;13.35;5.60;;;17.00;88.30;;;;;;5093884;28;20178;-67
2023/12/18 05:18:05;;;;;;;11.40;6.05;;;17.00;85.80;;;;;;5075289;28;20063;-66
2023/12/18 05:20:31;;;;;;;12.57;5.50;;;17.10;88.20;;;;;;5093818;27;20394;-69
2023/12/18 05:22:57;;;;;;;10.18;5.60;;;;;;;;;;5076013;28;20050;-68
2023/12/18 05:25:23;;;;;;;11.13;5.45;;;;;;;;;;5075417;28;20048;-68
2023/12/18 05:27:49;;;;;;;12.77;5.70;;;16.80;88.50;;;;;;5093694;28;20393;-68
2023/12/18 05:30:15;;;;;;;10.52;5.10;;;;;;;;;;5094192;28;20115;-68
2023/12/18 05:32:41;;;;;;;9.48;5.30;;;16.90;88.50;;;;;;5086544;28;20047;-68
2023/12/18 05:35:08;;;;;;;10.85;5.55;;;16.80;88.50;;;;;;5096263;28;20488;-67
2023/12/18 05:37:33;;;;;;;14.43;6.13;;;16.70;88.60;;;;;;5094765;28;20051;-63
2023/12/18 05:39:59;;;;;;;12.20;5.20;;;17.00;88.80;;;;;;5078283;28;20546;-64
2023/12/18 05:42:25;;;;;;;12.65;5.70;;;;;;;;;;5079073;28;20133;-63
2023/12/18 05:44:51;;;;;;;11.90;5.15;;;16.80;87.40;;;;;;5093426;28;20396;-63
2023/12/18 05:47:17;;;;;;;13.90;6.07;;;16.70;88.80;;;;;;5086969;28;20044;-67
2023/12/18 05:49:43;;;;;;;8.65;4.70;;;;;;;;;;5095339;28;20473;-68
2023/12/18 05:52:09;;;;;;;9.38;4.78;;;16.90;88.90;;;;;;5110913;28;20036;-68
2023/12/18 05:54:37;;;;;;;12.88;5.45;;;;;;;;;;5098046;28;20048;-68
2023/12/18 05:57:03;;;;;;;14.77;5.53;;;16.90;89.00;;;;;;5076480;28;20062;-67
2023/12/18 05:59:29;;;;;;;11.93;5.05;;;16.90;89.10;;;;;;5095165;28;20112;-67
2023/12/18 06:01:55;;;;;;;11.18;5.30;;;16.70;89.00;;;;;;5075669;28;20048;-68
2023/12/18 06:04:22;;;;;;;13.10;5.63;;;;;;;;;;5106476;28;20093;-69
2023/12/18 06:06:47;;;;;;;10.13;5.28;;;16.80;89.20;;;;;;5095132;28;20452;-67
2023/12/18 06:09:14;;;;;;;10.50;5.43;;;16.60;89.20;;;;;;5094833;28;20079;-68
2023/12/18 06:11:40;;;;;;;11.85;5.60;;;;;;;;;;5091796;28;20123;-67
2023/12/18 06:14:06;;;;;;;11.63;5.57;;;;;;;;;;5095312;28;20446;-68
2023/12/18 06:16:32;;;;;;;11.82;5.50;;;16.60;89.10;;;;;;5094750;28;20055;-64
2023/12/18 06:18:59;;;;;;;10.75;4.95;;;16.80;87.20;;;;;;5095097;28;20401;-68
2023/12/18 06:21:26;;;;;;;12.40;5.30;;;;;;;;;;5078636;28;20047;-67
2023/12/18 06:23:52;;;;;;;9.55;5.47;;;16.80;89.30;;;;;;5099590;28;20087;-67
2023/12/18 06:26:18;;;;;;;9.63;4.93;;;16.60;86.90;;;;;;5088796;28;20505;-67
2023/12/18 06:28:44;;;;;;;11.75;5.65;;;16.80;89.30;;;;;;5112777;28;20104;-67
2023/12/18 06:31:09;;;;;;;10.98;5.20;;;16.60;89.20;;;;;;5112773;28;20067;-67
2023/12/18 06:33:35;;;;;;;14.05;5.60;;;16.70;89.20;;;;;;5092555;28;20109;-67
2023/12/18 06:36:01;;;;;;;12.13;5.32;;;16.70;89.20;;;;;;5089271;28;20126;-68
2023/12/18 06:38:28;;;;;;;13.10;5.60;;;;;;;;;;5105089;28;20054;-67
2023/12/18 06:40:54;;;;;;;12.40;5.30;;;;;;;;;;5112702;28;20126;-67
2023/12/18 06:43:20;;;;;;;11.75;5.40;;;16.70;89.30;;;;;;5085516;28;20047;-67
2023/12/18 06:45:46;;;;;;;11.05;5.32;;;;;;;;;;5073604;28;20048;-67
2023/12/18 06:48:12;;;;;;;12.82;5.45;;;;;;;;;;5112308;28;20423;-67
2023/12/18 06:50:38;;;;;;;10.75;5.07;;;16.90;89.50;;;;;;5111794;28;20116;-67
2023/12/18 06:53:04;;;;;;;11.02;5.10;;;16.60;87.00;;;;;;5084723;28;20481;-67
2023/12/18 06:55:33;;;;;;;11.35;5.18;;;;;;;;;;5106490;28;20086;-67
2023/12/18 06:57:59;;;;;;;10.50;5.30;;;;;;;;;;5109512;28;20040;-67
2023/12/18 07:00:25;;;;;;;11.45;5.57;;;;;;;;;;5093786;28;20039;-67
2023/12/18 07:02:51;;;;;;;10.43;5.28;;;16.70;89.40;;;;;;5089710;28;20051;-67
2023/12/18 07:05:16;;;;;;;12.60;5.32;;;16.60;89.40;;;;;;5079550;28;20521;-67
2023/12/18 07:07:42;;;;;;;13.75;5.60;;;16.50;89.40;;;;;;5079390;28;20094;-67
2023/12/18 07:10:08;;;;;;;11.00;5.30;;;16.60;89.40;;;;;;5100785;28;20050;-67
2023/12/18 07:12:35;;;;;;;11.07;5.53;;;;;;;;;;5074434;28;20031;-67
2023/12/18 07:15:01;;;;;;;18.05;5.97;;;;;;;;;;5074584;28;20473;-69
2023/12/18 07:17:27;;;;;;;12.60;6.82;;;;;;;;;;5091711;28;20052;-69
2023/12/18 07:19:53;;;;;;;79.82;14.50;;;16.70;89.80;;;;;;5091646;28;20088;-68
2023/12/18 07:22:19;;;;;;;136.38;19.17;;;;;;;;;;5091901;28;20087;-68
2023/12/18 07:24:45;;;;;;;179.75;31.35;;;;;;;;;;5111077;28;20044;-68
2023/12/18 07:27:11;;;;;;;156.02;47.40;;;;;;;;;;5064395;28;20043;-68
2023/12/18 07:29:37;;;;;;;134.48;63.80;;;;;;;;;;5098002;28;20036;-67
2023/12/18 07:32:04;;;;;;;120.88;64.03;;;16.70;89.80;;;;;;5077589;28;20047;-68
2023/12/18 07:34:30;;;;;;;113.15;62.58;;;;;;;;;;5062038;28;20044;-68
2023/12/18 07:36:56;;;;;;;118.90;60.15;;;;;;;;;;5077264;28;20055;-67
2023/12/18 07:39:22;;;;;;;90.20;53.47;;;;;;;;;;5082836;28;20036;-68
2023/12/18 07:41:49;;;;;;;66.13;45.28;;;;;;;;;;5108564;28;20051;-68
2023/12/18 07:44:15;;;;;;;58.10;43.58;;;;;;;;;;5095569;28;20619;-68
2023/12/18 07:46:42;;;;;;;55.08;38.58;;;;;;;;;;5095801;28;20181;-67
2023/12/18 07:49:08;;;;;;;56.97;36.10;;;;;;;;;;5095373;28;20032;-66
2023/12/18 07:51:36;;;;;;;59.40;34.15;;;17.10;89.30;;;;;;5099880;28;20046;-67
2023/12/18 07:54:03;;;;;;;45.45;32.03;;;17.30;88.80;;;;;;5081500;28;20047;-67
2023/12/18 07:56:29;;;;;;;43.15;29.08;;;17.40;89.10;;;;;;5095060;28;20114;-67
2023/12/18 07:58:55;;;;;;;46.35;33.33;;;17.30;88.90;;;;;;5095315;28;20036;-67
2023/12/18 08:01:21;;;;;;;67.22;60.15;;;;;;;;;;5076818;28;20055;-67
2023/12/18 08:03:47;;;;;;;55.65;49.90;;;17.50;87.80;;;;;;5086141;28;20039;-67
2023/12/18 08:06:13;;;;;;;52.50;44.50;;;;;;;;;;5097211;28;20100;-67
2023/12/18 08:08:39;;;;;;;43.92;39.25;;;17.90;87.80;;;;;;5097231;28;20047;-67
2023/12/18 08:11:05;;;;;;;41.05;36.65;;;18.00;87.70;;;;;;5114373;28;20084;-67
2023/12/18 08:13:37;;;;;;;39.08;34.88;;;;;;;;;;5111840;27;20039;-66
2023/12/18 08:16:07;;;;;;;35.45;31.23;;;18.10;87.30;;;;;;5095130;28;20519;-67
2023/12/18 08:18:33;;;;;;;31.08;27.77;;;18.20;83.70;;;;;;5095517;28;20134;-67
2023/12/18 08:20:59;;;;;;;30.38;27.15;;;;;;;;;;5098799;28;20043;-67
2023/12/18 08:23:26;;;;;;;33.97;23.88;;;;;;;;;;5093737;28;20048;-69
2023/12/18 08:25:52;;;;;;;49.17;24.63;;;18.50;87.10;;;;;;5092287;28;20123;-68
2023/12/18 08:28:18;;;;;;;56.67;21.88;;;18.20;86.90;;;;;;5087140;28;20051;-67
2023/12/18 08:30:44;;;;;;;68.05;22.02;;;18.10;86.90;;;;;;5115000;28;20050;-68
2023/12/18 08:33:11;;;;;;;49.90;20.25;;;;;;;;;;5114994;28;20477;-68
2023/12/18 08:35:37;;;;;;;39.22;18.40;;;;;;;;;;5113012;28;20093;-67
2023/12/18 08:38:03;;;;;;;39.47;18.98;;;;;;;;;;5110298;28;20739;-68
2023/12/18 08:40:31;;;;;;;36.33;17.17;;;;;;;;;;5083314;28;20373;-68
2023/12/18 08:42:57;;;;;;;37.42;16.05;;;18.00;86.80;;;;;;5094260;28;20048;-67
2023/12/18 08:45:23;;;;;;;82.00;58.83;;;;;;;;;;5076322;28;20569;-67
2023/12/18 08:47:50;;;;;;;315.48;263.75;;;17.90;85.00;;;;;;5075757;28;20083;-66
2023/12/18 08:50:16;;;;;;;210.32;169.00;;;;;;;;;;5113043;28;20043;-68
2023/12/18 08:52:43;;;;;;;180.30;141.05;;;18.30;86.60;;;;;;5060261;28;20058;-70
2023/12/18 08:55:09;;;;;;;163.02;129.77;;;18.40;85.50;;;;;;5058232;28;20036;-67
2023/12/18 08:57:35;;;;;;;144.70;116.72;;;;;;;;;;5075742;28;20048;-67
2023/12/18 09:00:04;;;;;;;126.40;102.82;;;;;;;;;;5059971;28;20055;-66
2023/12/18 09:02:30;;;;;;;110.80;92.47;;;18.80;85.80;;;;;;5087146;28;20056;-67
2023/12/18 09:04:56;;;;;;;109.68;90.72;;;18.60;85.60;;;;;;5075395;28;20443;-67
2023/12/18 09:07:21;;;;;;;101.50;79.68;;;18.70;85.70;;;;;;5093718;28;20055;-67
2023/12/18 09:09:47;;;;;;;94.85;74.07;;;18.70;85.70;;;;;;5061793;28;20113;-67
2023/12/18 09:12:13;;;;;;;81.35;67.32;;;18.70;84.80;;;;;;5075786;28;20037;-66
2023/12/18 09:14:39;;;;;;;78.22;64.63;;;18.50;85.60;;;;;;5093913;28;20051;-67
2023/12/18 09:17:05;;;;;;;68.57;58.08;;;18.60;85.60;;;;;;5075283;28;20136;-66
2023/12/18 09:19:31;;;;;;;64.25;52.72;;;18.80;85.70;;;;;;5075090;28;20189;-67
2023/12/18 09:21:57;;;;;;;62.10;49.97;;;;;;;;;;5093857;28;20120;-67
2023/12/18 09:24:25;;;;;;;58.50;46.33;;;;;;;;;;5107597;28;20545;-66
2023/12/18 09:26:51;;;;;;;53.03;43.63;;;;;;;;;;5100990;28;20057;-67
2023/12/18 09:29:18;;;;;;;50.50;40.50;;;18.50;85.90;;;;;;5101395;28;20040;-67
2023/12/18 09:31:44;;;;;;;51.47;38.80;;;;;;;;;;5093128;28;20094;-67
2023/12/18 09:34:10;;;;;;;45.08;34.53;;;18.50;86.00;;;;;;5100651;28;20051;-66
2023/12/18 09:36:36;;;;;;;43.50;33.33;;;;;;;;;;5093125;28;20493;-65
2023/12/18 09:39:02;;;;;;;38.78;30.85;;;18.20;86.20;;;;;;5093984;28;20071;-66
2023/12/18 09:41:28;;;;;;;38.25;28.65;;;18.20;86.20;;;;;;5093324;28;20511;-67
2023/12/18 09:43:54;;;;;;;34.58;26.13;;;18.20;86.30;;;;;;5083212;28;20040;-67
2023/12/18 09:46:24;;;;;;;33.58;25.23;;;18.10;86.40;;;;;;5095480;28;20050;-67
2023/12/18 09:48:51;;;;;;;29.10;22.30;;;;;;;;;;5112390;28;20506;-67
2023/12/18 09:51:19;;;;;;;29.48;22.55;;;18.10;86.40;;;;;;5113261;28;20051;-65
2023/12/18 09:53:46;;;;;;;27.63;19.85;;;18.10;86.50;;;;;;5099850;28;20119;-67
2023/12/18 09:56:12;;;;;;;29.33;20.27;;;18.00;86.50;;;;;;5074651;28;20052;-68
2023/12/18 09:58:38;;;;;;;26.40;20.45;;;18.00;86.50;;;;;;5087096;28;20038;-67
2023/12/18 10:01:05;;;;;;;36.00;27.42;;;;;;;;;;5090326;28;20054;-66
2023/12/18 10:03:31;;;;;;;67.32;47.25;;;;;;;;;;5104414;28;20055;-66
2023/12/18 10:05:57;;;;;;;66.13;56.95;;;18.10;85.50;;;;;;5111791;28;20054;-65
2023/12/18 10:08:23;;;;;;;47.92;37.47;;;18.00;86.40;;;;;;5110930;28;20404;-66
2023/12/18 10:10:49;;;;;;;42.25;33.47;;;;;;;;;;5110956;28;20051;-65
2023/12/18 10:13:15;;;;;;;58.40;39.33;;;;;;;;;;5112735;28;20118;-66
2023/12/18 10:15:42;;;;;;;53.70;30.98;;;;;;;;;;5100808;28;20081;-66
2023/12/18 10:18:09;;;;;;;78.75;54.58;;;18.30;85.80;;;;;;5079956;28;20048;-66
2023/12/18 10:20:36;;;;;;;71.25;50.13;;;;;;;;;;5059432;28;20059;-67
2023/12/18 10:23:05;;;;;;;62.92;53.63;;;18.10;85.70;;;;;;5097279;28;20047;-67
2023/12/18 10:25:34;;;;;;;51.80;39.70;;;18.10;85.80;;;;;;5080743;28;20054;-68
2023/12/18 10:28:00;;;;;;;116.40;84.47;;;18.10;85.60;;;;;;5063219;28;20043;-68
2023/12/18 10:30:29;;;;;;;56.63;42.05;;;;;;;;;;5072796;28;20039;-66
2023/12/18 10:32:55;;;;;;;101.78;83.10;;;;;;;;;;5086585;28;20048;-67
2023/12/18 10:35:21;;;;;;;156.32;126.75;;;17.80;86.20;;;;;;5060651;28;20127;-66
2023/12/18 10:37:56;;;;;;;118.50;96.97;;;17.60;83.90;;;;;;5092304;28;20127;-68
2023/12/18 10:40:23;;;;;;;106.70;90.82;;;17.60;84.60;;;;;;5077719;28;20044;-67
2023/12/18 10:43:12;;;;;;;85.97;73.45;;;17.60;86.30;;;;;;5094497;28;20051;-66
2023/12/18 10:45:38;;;;;;;98.50;82.00;;;17.60;86.80;;;;;;5094225;28;20036;-67
2023/12/18 10:48:04;;;;;;;97.28;82.80;;;17.60;85.70;;;;;;5074202;28;20409;-67
2023/12/18 10:50:30;;;;;;;86.75;75.35;;;17.40;86.90;;;;;;5057307;28;20044;-67
2023/12/18 10:52:57;;;;;;;77.43;62.60;;;17.40;86.90;;;;;;5069852;28;20119;-67
2023/12/18 10:55:23;;;;;;;45.53;33.97;;;;;;;;;;5106211;28;20051;-64
2023/12/18 10:57:50;;;;;;;64.38;55.85;;;;;;;;;;5074195;28;20055;-66
2023/12/18 11:00:17;;;;;;;58.42;48.65;;;;;;;;;;5092802;28;20393;-66
2023/12/18 11:02:43;;;;;;;54.03;43.28;;;;;;;;;;5066293;28;20051;-68
2023/12/18 11:05:10;;;;;;;52.22;42.38;;;;;;;;;;5081839;28;20077;-66
2023/12/18 11:07:36;;;;;;;47.65;35.45;;;;;;;;;;5078190;28;20053;-67
2023/12/18 11:10:02;;;;;;;54.97;48.05;;;;;;;;;;5103931;28;20363;-67
2023/12/18 11:12:28;;;;;;;46.13;37.10;;;;;;;;;;5095581;28;20043;-67
2023/12/18 11:14:55;;;;;;;34.47;27.65;;;;;;;;;;5112787;28;20035;-67
2023/12/18 11:17:56;;;;;;;32.55;27.05;;;17.00;83.70;;;;;;5108820;28;20138;-66
2023/12/18 11:20:34;;;;;;;50.28;30.25;;;16.90;85.70;;;;;;5086911;28;20197;-65
2023/12/18 11:23:01;;;;;;;54.83;39.40;;;;;;;;;;5081655;28;20181;-66
2023/12/18 11:25:44;;;;;;;48.03;37.33;;;17.10;84.50;;;;;;5083056;28;20547;-66
2023/12/18 11:28:10;;;;;;;49.47;34.65;;;;;;;;;;5061145;28;20052;-66
2023/12/18 11:30:40;;;;;;;39.45;33.30;;;17.10;88.20;;;;;;5078157;28;20044;-68
2023/12/18 11:33:06;;;;;;;32.80;27.20;;;17.20;86.30;;;;;;5061268;28;20051;-66
2023/12/18 11:35:36;;;;;;;36.25;26.10;;;;;;;;;;5071726;28;20447;-65
2023/12/18 11:38:06;;;;;;;34.03;25.00;;;17.10;88.10;;;;;;5088178;28;20393;-65
2023/12/18 11:40:36;;;;;;;29.50;20.13;;;17.30;88.10;;;;;;5077223;28;20047;-65
2023/12/18 11:43:06;;;;;;;32.88;21.15;;;17.20;85.40;;;;;;5064848;28;20108;-66
2023/12/18 11:45:32;;;;;;;29.50;20.55;;;;;;;;;;5082549;28;20436;-67
2023/12/18 11:48:03;;;;;;;25.98;19.05;;;17.10;84.10;;;;;;5060859;28;20061;-67
2023/12/18 11:50:38;;;;;;;27.23;17.65;;;17.20;84.10;;;;;;5077457;28;20040;-67
2023/12/18 11:56:45;;;;;;;22.15;14.20;;;;;;;;;;5095311;28;20112;-66
2023/12/18 11:59:12;;;;;;;21.83;14.25;;;;;;;;;;5075052;28;20048;-66
2023/12/18 12:01:38;;;;;;;22.30;13.57;;;;;;;;;;5112700;28;20104;-67
2023/12/18 12:04:05;;;;;;;21.98;13.52;;;;;;;;;;5097215;28;20043;-67
2023/12/18 12:06:31;;;;;;;22.15;13.10;;;17.10;88.10;;;;;;5097039;28;20048;-66
2023/12/18 12:08:57;;;;;;;20.25;13.13;;;;;;;;;;5095414;28;20052;-66
2023/12/18 12:11:23;;;;;;;22.63;12.70;;;;;;;;;;5094480;28;20127;-67
2023/12/18 12:13:53;;;;;;;19.65;11.65;;;17.20;85.80;;;;;;5092835;28;20126;-67
2023/12/18 12:16:20;;;;;;;20.00;11.73;;;;;;;;;;5079956;28;20051;-66
2023/12/18 12:18:46;;;;;;;22.35;12.75;;;17.20;85.10;;;;;;5077179;28;20048;-66
2023/12/18 12:21:13;;;;;;;23.67;12.20;;;;;;;;;;5094215;28;20048;-66
2023/12/18 12:23:39;;;;;;;20.52;11.18;;;;;;;;;;5059702;28;20494;-66
2023/12/18 12:26:05;;;;;;;18.85;11.32;;;;;;;;;;5076744;28;20393;-66
2023/12/18 12:28:31;;;;;;;18.88;11.73;;;;;;;;;;5094126;27;20043;-66
2023/12/18 12:30:58;;;;;;;18.38;10.55;;;;;;;;;;5093261;28;20066;-67
2023/12/18 12:33:24;;;;;;;22.30;13.55;;;;;;;;;;5113712;28;20188;-67
2023/12/18 12:35:50;;;;;;;22.90;13.13;;;;;;;;;;5062203;28;20047;-68
2023/12/18 12:38:16;;;;;;;20.13;13.10;;;;;;;;;;5079788;28;20050;-67
2023/12/18 12:40:43;;;;;;;24.38;13.15;;;;;;;;;;5089088;28;20070;-66
2023/12/18 12:43:12;;;;;;;23.33;12.93;;;;;;;;;;5107635;28;20124;-66
2023/12/18 12:45:39;;;;;;;17.45;11.48;;;;;;;;;;5084665;28;20625;-66
2023/12/18 12:48:09;;;;;;;17.58;11.38;;;16.00;85.60;;;;;;5079373;28;20496;-67
2023/12/18 12:50:37;;;;;;;26.42;15.32;;;16.80;86.10;;;;;;5065744;28;20048;-65
2023/12/18 12:53:03;;;;;;;39.40;14.07;;;;;;;;;;5048836;28;20040;-66
2023/12/18 12:55:29;;;;;;;24.60;14.82;;;16.80;87.90;;;;;;5078879;28;20055;-66
2023/12/18 12:57:55;;;;;;;23.40;13.85;;;16.90;89.00;;;;;;5064033;28;20362;-65
2023/12/18 13:00:21;;;;;;;30.15;13.63;;;;;;;;;;5049013;28;20456;-65
2023/12/18 13:02:47;;;;;;;28.45;13.48;;;;;;;;;;5071692;28;20104;-65
2023/12/18 13:05:13;;;;;;;19.63;12.30;;;;;;;;;;5060591;28;20134;-65
2023/12/18 13:07:39;;;;;;;23.00;12.30;;;;;;;;;;5090592;28;20044;-65
2023/12/18 13:10:06;;;;;;;22.55;12.23;;;;;;;;;;5081482;27;20085;-65